sensor_id;sensor_type;location;lat;lon;timestamp;temperature;humidity
32506;DHT22;18955;51.224;8.482;2022-10-16T00:00:34;12.40;82.60
32506;DHT22;18955;51.224;8.482;2022-10-16T00:03:01;12.40;82.50
32506;DHT22;18955;51.224;8.482;2022-10-16T00:05:27;12.40;82.50
32506;DHT22;18955;51.224;8.482;2022-10-16T00:07:53;12.40;82.60
32506;DHT22;18955;51.224;8.482;2022-10-16T00:10:20;12.40;82.60
32506;DHT22;18955;51.224;8.482;2022-10-16T00:12:46;12.30;82.60
32506;DHT22;18955;51.224;8.482;2022-10-16T00:15:13;12.30;82.50
32506;DHT22;18955;51.224;8.482;2022-10-16T00:17:39;12.30;82.60
32506;DHT22;18955;51.224;8.482;2022-10-16T00:20:05;12.30;82.60
32506;DHT22;18955;51.224;8.482;2022-10-16T00:22:32;12.30;82.60
32506;DHT22;18955;51.224;8.482;2022-10-16T00:24:59;12.30;82.60
32506;DHT22;18955;51.224;8.482;2022-10-16T00:27:25;12.30;82.50
32506;DHT22;18955;51.224;8.482;2022-10-16T00:29:52;12.30;82.60
32506;DHT22;18955;51.224;8.482;2022-10-16T00:32:20;12.30;82.70
32506;DHT22;18955;51.224;8.482;2022-10-16T00:34:46;12.20;82.60
32506;DHT22;18955;51.224;8.482;2022-10-16T00:37:13;12.20;82.60
32506;DHT22;18955;51.224;8.482;2022-10-16T00:39:39;12.20;82.60
32506;DHT22;18955;51.224;8.482;2022-10-16T00:42:05;12.20;82.50
32506;DHT22;18955;51.224;8.482;2022-10-16T00:45:02;12.20;82.60
32506;DHT22;18955;51.224;8.482;2022-10-16T00:47:43;12.20;82.60
32506;DHT22;18955;51.224;8.482;2022-10-16T00:52:55;12.20;82.70
32506;DHT22;18955;51.224;8.482;2022-10-16T00:55:22;12.20;82.70
32506;DHT22;18955;51.224;8.482;2022-10-16T00:57:48;12.10;82.60
32506;DHT22;18955;51.224;8.482;2022-10-16T01:00:19;12.10;82.60
32506;DHT22;18955;51.224;8.482;2022-10-16T01:02:54;12.10;82.60
32506;DHT22;18955;51.224;8.482;2022-10-16T01:05:22;12.10;82.70
32506;DHT22;18955;51.224;8.482;2022-10-16T01:08:15;12.10;82.60
32506;DHT22;18955;51.224;8.482;2022-10-16T01:10:55;12.10;82.60
32506;DHT22;18955;51.224;8.482;2022-10-16T01:13:42;12.10;82.50
32506;DHT22;18955;51.224;8.482;2022-10-16T01:16:17;12.10;82.70
32506;DHT22;18955;51.224;8.482;2022-10-16T01:18:51;12.00;82.60
32506;DHT22;18955;51.224;8.482;2022-10-16T01:21:23;12.00;82.70
32506;DHT22;18955;51.224;8.482;2022-10-16T01:29:29;12.00;82.60
32506;DHT22;18955;51.224;8.482;2022-10-16T01:32:02;12.00;82.70
32506;DHT22;18955;51.224;8.482;2022-10-16T01:34:36;12.00;82.60
32506;DHT22;18955;51.224;8.482;2022-10-16T01:37:09;12.00;82.70
32506;DHT22;18955;51.224;8.482;2022-10-16T01:39:40;11.90;82.60
32506;DHT22;18955;51.224;8.482;2022-10-16T01:42:12;11.90;82.70
32506;DHT22;18955;51.224;8.482;2022-10-16T01:44:41;11.90;82.80
32506;DHT22;18955;51.224;8.482;2022-10-16T01:47:09;11.90;82.80
32506;DHT22;18955;51.224;8.482;2022-10-16T01:49:39;11.90;82.80
32506;DHT22;18955;51.224;8.482;2022-10-16T01:52:10;11.90;82.70
32506;DHT22;18955;51.224;8.482;2022-10-16T01:54:39;11.80;82.60
32506;DHT22;18955;51.224;8.482;2022-10-16T01:57:07;11.90;82.70
32506;DHT22;18955;51.224;8.482;2022-10-16T01:59:49;11.80;82.60
32506;DHT22;18955;51.224;8.482;2022-10-16T02:02:18;11.80;82.60
32506;DHT22;18955;51.224;8.482;2022-10-16T02:04:49;11.80;82.60
32506;DHT22;18955;51.224;8.482;2022-10-16T02:07:19;11.80;82.80
32506;DHT22;18955;51.224;8.482;2022-10-16T02:09:45;11.80;82.70
32506;DHT22;18955;51.224;8.482;2022-10-16T02:12:26;11.80;82.80
32506;DHT22;18955;51.224;8.482;2022-10-16T02:14:53;11.80;82.80
32506;DHT22;18955;51.224;8.482;2022-10-16T02:17:20;11.70;82.70
32506;DHT22;18955;51.224;8.482;2022-10-16T02:19:48;11.70;82.80
32506;DHT22;18955;51.224;8.482;2022-10-16T02:22:37;11.80;83.20
32506;DHT22;18955;51.224;8.482;2022-10-16T02:30:38;11.70;82.60
32506;DHT22;18955;51.224;8.482;2022-10-16T02:33:08;11.70;82.60
32506;DHT22;18955;51.224;8.482;2022-10-16T02:35:36;11.70;82.60
32506;DHT22;18955;51.224;8.482;2022-10-16T02:38:03;11.70;82.60
32506;DHT22;18955;51.224;8.482;2022-10-16T02:40:30;11.70;82.70
32506;DHT22;18955;51.224;8.482;2022-10-16T02:42:56;11.70;82.80
32506;DHT22;18955;51.224;8.482;2022-10-16T02:45:23;11.70;82.60
32506;DHT22;18955;51.224;8.482;2022-10-16T02:47:49;11.70;82.60
32506;DHT22;18955;51.224;8.482;2022-10-16T02:50:16;11.70;82.60
32506;DHT22;18955;51.224;8.482;2022-10-16T02:52:42;11.60;82.60
32506;DHT22;18955;51.224;8.482;2022-10-16T02:55:08;11.60;82.60
32506;DHT22;18955;51.224;8.482;2022-10-16T02:57:34;11.60;82.70
32506;DHT22;18955;51.224;8.482;2022-10-16T03:00:09;11.60;82.70
32506;DHT22;18955;51.224;8.482;2022-10-16T03:02:37;11.60;82.70
32506;DHT22;18955;51.224;8.482;2022-10-16T03:05:04;11.60;82.70
32506;DHT22;18955;51.224;8.482;2022-10-16T03:07:30;11.60;82.50
32506;DHT22;18955;51.224;8.482;2022-10-16T03:09:56;11.60;82.60
32506;DHT22;18955;51.224;8.482;2022-10-16T03:12:23;11.60;82.50
32506;DHT22;18955;51.224;8.482;2022-10-16T03:14:49;11.60;82.70
32506;DHT22;18955;51.224;8.482;2022-10-16T03:17:15;11.60;82.80
32506;DHT22;18955;51.224;8.482;2022-10-16T03:19:42;11.60;82.90
32506;DHT22;18955;51.224;8.482;2022-10-16T03:22:08;11.60;83.30
32506;DHT22;18955;51.224;8.482;2022-10-16T03:24:35;11.50;82.70
32506;DHT22;18955;51.224;8.482;2022-10-16T03:27:04;11.60;82.90
32506;DHT22;18955;51.224;8.482;2022-10-16T03:29:30;11.50;82.60
32506;DHT22;18955;51.224;8.482;2022-10-16T03:31:58;11.60;82.80
32506;DHT22;18955;51.224;8.482;2022-10-16T03:34:24;11.60;82.70
32506;DHT22;18955;51.224;8.482;2022-10-16T03:36:51;11.50;82.60
32506;DHT22;18955;51.224;8.482;2022-10-16T03:39:18;11.50;82.60
32506;DHT22;18955;51.224;8.482;2022-10-16T03:41:44;11.50;82.70
32506;DHT22;18955;51.224;8.482;2022-10-16T03:44:13;11.50;82.80
32506;DHT22;18955;51.224;8.482;2022-10-16T03:46:39;11.50;82.80
32506;DHT22;18955;51.224;8.482;2022-10-16T03:49:05;11.50;82.90
32506;DHT22;18955;51.224;8.482;2022-10-16T03:51:31;11.50;82.90
32506;DHT22;18955;51.224;8.482;2022-10-16T03:53:57;11.50;82.70
32506;DHT22;18955;51.224;8.482;2022-10-16T03:56:24;11.50;82.80
32506;DHT22;18955;51.224;8.482;2022-10-16T03:58:50;11.50;82.70
32506;DHT22;18955;51.224;8.482;2022-10-16T04:01:16;11.50;82.70
32506;DHT22;18955;51.224;8.482;2022-10-16T04:03:42;11.50;82.90
32506;DHT22;18955;51.224;8.482;2022-10-16T04:06:08;11.50;83.20
32506;DHT22;18955;51.224;8.482;2022-10-16T04:08:35;11.50;83.10
32506;DHT22;18955;51.224;8.482;2022-10-16T04:11:03;11.50;82.90
32506;DHT22;18955;51.224;8.482;2022-10-16T04:13:29;11.50;82.90
32506;DHT22;18955;51.224;8.482;2022-10-16T04:15:55;11.40;82.90
32506;DHT22;18955;51.224;8.482;2022-10-16T04:18:22;11.50;82.90
32506;DHT22;18955;51.224;8.482;2022-10-16T04:20:48;11.50;83.00
32506;DHT22;18955;51.224;8.482;2022-10-16T04:23:14;11.40;82.80
32506;DHT22;18955;51.224;8.482;2022-10-16T04:25:41;11.40;83.30
32506;DHT22;18955;51.224;8.482;2022-10-16T04:28:07;11.40;82.80
32506;DHT22;18955;51.224;8.482;2022-10-16T04:30:33;11.40;82.80
32506;DHT22;18955;51.224;8.482;2022-10-16T04:32:59;11.40;82.80
32506;DHT22;18955;51.224;8.482;2022-10-16T04:35:25;11.40;82.70
32506;DHT22;18955;51.224;8.482;2022-10-16T04:37:52;11.40;82.80
32506;DHT22;18955;51.224;8.482;2022-10-16T04:40:18;11.40;82.70
32506;DHT22;18955;51.224;8.482;2022-10-16T04:42:44;11.40;82.70
32506;DHT22;18955;51.224;8.482;2022-10-16T04:45:10;11.40;82.80
32506;DHT22;18955;51.224;8.482;2022-10-16T04:47:37;11.40;82.80
32506;DHT22;18955;51.224;8.482;2022-10-16T04:50:03;11.40;82.80
32506;DHT22;18955;51.224;8.482;2022-10-16T04:52:29;11.40;82.70
32506;DHT22;18955;51.224;8.482;2022-10-16T04:54:58;11.40;82.60
32506;DHT22;18955;51.224;8.482;2022-10-16T04:57:27;11.40;82.80
32506;DHT22;18955;51.224;8.482;2022-10-16T04:59:54;11.40;82.60
32506;DHT22;18955;51.224;8.482;2022-10-16T05:02:20;11.30;82.70
32506;DHT22;18955;51.224;8.482;2022-10-16T05:04:46;11.40;82.60
32506;DHT22;18955;51.224;8.482;2022-10-16T05:07:13;11.40;82.70
32506;DHT22;18955;51.224;8.482;2022-10-16T05:09:39;11.30;82.50
32506;DHT22;18955;51.224;8.482;2022-10-16T05:12:05;11.30;82.50
32506;DHT22;18955;51.224;8.482;2022-10-16T05:14:31;11.30;82.60
32506;DHT22;18955;51.224;8.482;2022-10-16T05:16:58;11.30;82.70
32506;DHT22;18955;51.224;8.482;2022-10-16T05:19:25;11.30;82.60
32506;DHT22;18955;51.224;8.482;2022-10-16T05:21:51;11.30;82.60
32506;DHT22;18955;51.224;8.482;2022-10-16T05:24:18;11.30;82.60
32506;DHT22;18955;51.224;8.482;2022-10-16T05:26:44;11.30;82.60
32506;DHT22;18955;51.224;8.482;2022-10-16T05:29:10;11.30;82.60
32506;DHT22;18955;51.224;8.482;2022-10-16T05:31:36;11.30;82.70
32506;DHT22;18955;51.224;8.482;2022-10-16T05:34:03;11.30;82.60
32506;DHT22;18955;51.224;8.482;2022-10-16T05:36:29;11.30;82.60
32506;DHT22;18955;51.224;8.482;2022-10-16T05:38:55;11.30;82.70
32506;DHT22;18955;51.224;8.482;2022-10-16T05:41:21;11.30;82.60
32506;DHT22;18955;51.224;8.482;2022-10-16T05:43:49;11.30;82.60
32506;DHT22;18955;51.224;8.482;2022-10-16T05:46:16;11.30;82.60
32506;DHT22;18955;51.224;8.482;2022-10-16T05:48:42;11.30;82.50
32506;DHT22;18955;51.224;8.482;2022-10-16T05:51:11;11.30;82.70
32506;DHT22;18955;51.224;8.482;2022-10-16T05:53:38;11.30;82.60
32506;DHT22;18955;51.224;8.482;2022-10-16T05:56:06;11.30;82.60
32506;DHT22;18955;51.224;8.482;2022-10-16T05:58:35;11.30;82.60
32506;DHT22;18955;51.224;8.482;2022-10-16T06:01:05;11.30;82.60
32506;DHT22;18955;51.224;8.482;2022-10-16T06:03:33;11.30;82.50
32506;DHT22;18955;51.224;8.482;2022-10-16T06:06:14;11.20;82.60
32506;DHT22;18955;51.224;8.482;2022-10-16T06:08:42;11.30;82.60
32506;DHT22;18955;51.224;8.482;2022-10-16T06:11:11;11.30;82.70
32506;DHT22;18955;51.224;8.482;2022-10-16T06:13:37;11.20;82.70
32506;DHT22;18955;51.224;8.482;2022-10-16T06:16:05;11.20;82.60
32506;DHT22;18955;51.224;8.482;2022-10-16T06:18:31;11.30;82.60
32506;DHT22;18955;51.224;8.482;2022-10-16T06:20:57;11.20;82.60
32506;DHT22;18955;51.224;8.482;2022-10-16T06:23:25;11.20;82.60
32506;DHT22;18955;51.224;8.482;2022-10-16T06:25:51;11.30;82.60
32506;DHT22;18955;51.224;8.482;2022-10-16T06:28:17;11.20;82.60
32506;DHT22;18955;51.224;8.482;2022-10-16T06:30:44;11.20;82.50
32506;DHT22;18955;51.224;8.482;2022-10-16T06:33:11;11.20;82.60
32506;DHT22;18955;51.224;8.482;2022-10-16T06:35:37;11.20;82.60
32506;DHT22;18955;51.224;8.482;2022-10-16T06:38:03;11.20;82.60
32506;DHT22;18955;51.224;8.482;2022-10-16T06:40:29;11.20;82.60
32506;DHT22;18955;51.224;8.482;2022-10-16T06:42:56;11.20;82.50
32506;DHT22;18955;51.224;8.482;2022-10-16T06:45:22;11.20;82.60
32506;DHT22;18955;51.224;8.482;2022-10-16T06:47:48;11.20;82.50
32506;DHT22;18955;51.224;8.482;2022-10-16T06:50:14;11.20;82.50
32506;DHT22;18955;51.224;8.482;2022-10-16T06:52:40;11.20;82.40
32506;DHT22;18955;51.224;8.482;2022-10-16T06:55:07;11.20;82.50
32506;DHT22;18955;51.224;8.482;2022-10-16T06:57:33;11.20;82.40
32506;DHT22;18955;51.224;8.482;2022-10-16T06:59:59;11.20;82.40
32506;DHT22;18955;51.224;8.482;2022-10-16T07:02:26;11.20;82.30
32506;DHT22;18955;51.224;8.482;2022-10-16T07:04:52;11.20;82.40
32506;DHT22;18955;51.224;8.482;2022-10-16T07:07:18;11.20;82.40
32506;DHT22;18955;51.224;8.482;2022-10-16T07:09:44;11.20;82.50
32506;DHT22;18955;51.224;8.482;2022-10-16T07:12:10;11.20;82.30
32506;DHT22;18955;51.224;8.482;2022-10-16T07:14:36;11.20;82.30
32506;DHT22;18955;51.224;8.482;2022-10-16T07:17:03;11.20;82.30
32506;DHT22;18955;51.224;8.482;2022-10-16T07:19:29;11.20;82.30
32506;DHT22;18955;51.224;8.482;2022-10-16T07:21:55;11.10;82.10
32506;DHT22;18955;51.224;8.482;2022-10-16T07:24:22;11.20;82.20
32506;DHT22;18955;51.224;8.482;2022-10-16T07:26:49;11.20;82.30
32506;DHT22;18955;51.224;8.482;2022-10-16T07:29:20;11.20;82.30
32506;DHT22;18955;51.224;8.482;2022-10-16T07:31:47;11.20;82.30
32506;DHT22;18955;51.224;8.482;2022-10-16T07:34:15;11.20;82.30
32506;DHT22;18955;51.224;8.482;2022-10-16T07:36:42;11.20;82.30
32506;DHT22;18955;51.224;8.482;2022-10-16T07:39:08;11.20;82.30
32506;DHT22;18955;51.224;8.482;2022-10-16T07:41:34;11.10;82.30
32506;DHT22;18955;51.224;8.482;2022-10-16T07:44:03;11.20;82.20
32506;DHT22;18955;51.224;8.482;2022-10-16T07:46:30;11.20;82.20
32506;DHT22;18955;51.224;8.482;2022-10-16T07:48:56;11.20;82.20
32506;DHT22;18955;51.224;8.482;2022-10-16T07:51:24;11.20;82.20
32506;DHT22;18955;51.224;8.482;2022-10-16T07:53:52;11.20;82.10
32506;DHT22;18955;51.224;8.482;2022-10-16T07:56:20;11.20;82.10
32506;DHT22;18955;51.224;8.482;2022-10-16T07:58:47;11.20;82.10
32506;DHT22;18955;51.224;8.482;2022-10-16T08:01:16;11.20;82.10
32506;DHT22;18955;51.224;8.482;2022-10-16T08:03:47;11.20;82.10
32506;DHT22;18955;51.224;8.482;2022-10-16T08:06:14;11.20;82.10
32506;DHT22;18955;51.224;8.482;2022-10-16T08:08:40;11.20;83.30
32506;DHT22;18955;51.224;8.482;2022-10-16T08:11:07;11.20;82.10
32506;DHT22;18955;51.224;8.482;2022-10-16T08:13:34;11.20;82.10
32506;DHT22;18955;51.224;8.482;2022-10-16T08:16:00;11.20;82.00
32506;DHT22;18955;51.224;8.482;2022-10-16T08:18:27;11.20;82.00
32506;DHT22;18955;51.224;8.482;2022-10-16T08:20:58;11.20;81.90
32506;DHT22;18955;51.224;8.482;2022-10-16T08:23:25;11.20;81.90
32506;DHT22;18955;51.224;8.482;2022-10-16T08:25:56;11.20;81.90
32506;DHT22;18955;51.224;8.482;2022-10-16T08:28:27;11.20;81.90
32506;DHT22;18955;51.224;8.482;2022-10-16T08:30:53;11.30;82.00
32506;DHT22;18955;51.224;8.482;2022-10-16T08:33:19;11.30;82.00
32506;DHT22;18955;51.224;8.482;2022-10-16T08:35:55;11.30;82.00
32506;DHT22;18955;51.224;8.482;2022-10-16T08:38:21;11.30;82.00
32506;DHT22;18955;51.224;8.482;2022-10-16T08:40:47;11.20;81.90
32506;DHT22;18955;51.224;8.482;2022-10-16T08:43:22;11.30;81.90
32506;DHT22;18955;51.224;8.482;2022-10-16T08:48:51;11.30;81.90
32506;DHT22;18955;51.224;8.482;2022-10-16T08:51:30;11.30;81.90
32506;DHT22;18955;51.224;8.482;2022-10-16T08:54:01;11.30;82.10
32506;DHT22;18955;51.224;8.482;2022-10-16T08:56:28;11.30;82.00
32506;DHT22;18955;51.224;8.482;2022-10-16T08:58:57;11.30;82.00
32506;DHT22;18955;51.224;8.482;2022-10-16T09:01:32;11.30;82.00
32506;DHT22;18955;51.224;8.482;2022-10-16T09:12:43;11.30;81.90
32506;DHT22;18955;51.224;8.482;2022-10-16T09:23:32;11.40;82.00
32506;DHT22;18955;51.224;8.482;2022-10-16T09:26:00;11.40;82.00
32506;DHT22;18955;51.224;8.482;2022-10-16T09:28:27;11.40;82.00
32506;DHT22;18955;51.224;8.482;2022-10-16T09:30:53;11.40;82.00
32506;DHT22;18955;51.224;8.482;2022-10-16T09:33:23;11.40;82.00
32506;DHT22;18955;51.224;8.482;2022-10-16T09:35:53;11.40;81.90
32506;DHT22;18955;51.224;8.482;2022-10-16T09:38:31;11.50;82.00
32506;DHT22;18955;51.224;8.482;2022-10-16T09:40:58;11.50;82.00
32506;DHT22;18955;51.224;8.482;2022-10-16T09:46:07;11.50;82.00
32506;DHT22;18955;51.224;8.482;2022-10-16T09:48:43;11.50;82.00
32506;DHT22;18955;51.224;8.482;2022-10-16T09:51:29;11.50;82.00
32506;DHT22;18955;51.224;8.482;2022-10-16T09:54:01;11.50;82.00
32506;DHT22;18955;51.224;8.482;2022-10-16T09:56:33;11.50;81.90
32506;DHT22;18955;51.224;8.482;2022-10-16T09:59:02;11.50;81.90
32506;DHT22;18955;51.224;8.482;2022-10-16T10:01:50;11.60;82.00
32506;DHT22;18955;51.224;8.482;2022-10-16T10:04:20;11.60;81.90
32506;DHT22;18955;51.224;8.482;2022-10-16T10:06:49;11.70;81.90
32506;DHT22;18955;51.224;8.482;2022-10-16T10:09:27;11.60;81.90
32506;DHT22;18955;51.224;8.482;2022-10-16T10:11:58;11.70;81.80
32506;DHT22;18955;51.224;8.482;2022-10-16T10:19:38;11.70;82.60
32506;DHT22;18955;51.224;8.482;2022-10-16T10:22:23;11.80;82.10
32506;DHT22;18955;51.224;8.482;2022-10-16T10:27:43;11.80;82.00
32506;DHT22;18955;51.224;8.482;2022-10-16T10:35:17;11.90;83.00
32506;DHT22;18955;51.224;8.482;2022-10-16T10:46:32;12.00;82.30
32506;DHT22;18955;51.224;8.482;2022-10-16T10:49:07;12.00;82.40
32506;DHT22;18955;51.224;8.482;2022-10-16T10:51:56;12.00;82.60
32506;DHT22;18955;51.224;8.482;2022-10-16T10:54:33;12.00;82.50
32506;DHT22;18955;51.224;8.482;2022-10-16T10:57:03;12.00;82.70
32506;DHT22;18955;51.224;8.482;2022-10-16T11:02:02;12.00;82.60
32506;DHT22;18955;51.224;8.482;2022-10-16T11:05:09;12.00;82.20
32506;DHT22;18955;51.224;8.482;2022-10-16T11:08:02;12.00;82.90
32506;DHT22;18955;51.224;8.482;2022-10-16T11:10:39;12.10;82.40
32506;DHT22;18955;51.224;8.482;2022-10-16T11:13:16;12.10;82.60
32506;DHT22;18955;51.224;8.482;2022-10-16T11:15:44;12.10;82.50
32506;DHT22;18955;51.224;8.482;2022-10-16T11:18:19;12.10;82.40
32506;DHT22;18955;51.224;8.482;2022-10-16T11:20:51;12.10;82.40
32506;DHT22;18955;51.224;8.482;2022-10-16T11:25:51;12.10;82.50
32506;DHT22;18955;51.224;8.482;2022-10-16T11:28:23;12.10;82.40
32506;DHT22;18955;51.224;8.482;2022-10-16T11:30:58;12.10;82.30
32506;DHT22;18955;51.224;8.482;2022-10-16T11:33:39;12.20;82.40
32506;DHT22;18955;51.224;8.482;2022-10-16T11:36:17;12.20;82.40
32506;DHT22;18955;51.224;8.482;2022-10-16T11:43:48;12.20;82.50
32506;DHT22;18955;51.224;8.482;2022-10-16T11:46:21;12.10;82.30
32506;DHT22;18955;51.224;8.482;2022-10-16T11:48:49;12.20;82.30
32506;DHT22;18955;51.224;8.482;2022-10-16T11:51:39;12.20;82.20
32506;DHT22;18955;51.224;8.482;2022-10-16T11:54:30;12.20;82.30
32506;DHT22;18955;51.224;8.482;2022-10-16T11:56:59;12.20;82.30
32506;DHT22;18955;51.224;8.482;2022-10-16T11:59:43;12.30;82.20
32506;DHT22;18955;51.224;8.482;2022-10-16T12:02:33;12.30;82.20
32506;DHT22;18955;51.224;8.482;2022-10-16T12:05:28;12.30;82.30
32506;DHT22;18955;51.224;8.482;2022-10-16T12:08:02;12.30;82.50
32506;DHT22;18955;51.224;8.482;2022-10-16T12:10:30;12.30;82.80
32506;DHT22;18955;51.224;8.482;2022-10-16T12:12:58;12.30;82.30
32506;DHT22;18955;51.224;8.482;2022-10-16T12:15:32;12.40;82.20
32506;DHT22;18955;51.224;8.482;2022-10-16T12:17:59;12.30;82.20
32506;DHT22;18955;51.224;8.482;2022-10-16T12:20:33;12.40;82.10
32506;DHT22;18955;51.224;8.482;2022-10-16T12:23:04;12.40;82.20
32506;DHT22;18955;51.224;8.482;2022-10-16T12:25:36;12.50;82.40
32506;DHT22;18955;51.224;8.482;2022-10-16T12:30:42;12.60;82.20
32506;DHT22;18955;51.224;8.482;2022-10-16T12:33:22;12.60;82.20
32506;DHT22;18955;51.224;8.482;2022-10-16T12:35:50;12.60;82.40
32506;DHT22;18955;51.224;8.482;2022-10-16T12:43:34;12.70;82.60
32506;DHT22;18955;51.224;8.482;2022-10-16T12:46:04;12.70;82.60
32506;DHT22;18955;51.224;8.482;2022-10-16T12:48:31;12.70;82.60
32506;DHT22;18955;51.224;8.482;2022-10-16T12:50:57;12.70;82.50
32506;DHT22;18955;51.224;8.482;2022-10-16T12:53:34;12.70;82.60
32506;DHT22;18955;51.224;8.482;2022-10-16T12:56:03;12.70;82.70
32506;DHT22;18955;51.224;8.482;2022-10-16T12:58:47;12.80;82.50
32506;DHT22;18955;51.224;8.482;2022-10-16T13:06:56;12.80;82.60
32506;DHT22;18955;51.224;8.482;2022-10-16T13:09:45;12.90;82.50
32506;DHT22;18955;51.224;8.482;2022-10-16T13:12:17;12.90;82.40
32506;DHT22;18955;51.224;8.482;2022-10-16T13:17:41;13.00;82.30
32506;DHT22;18955;51.224;8.482;2022-10-16T13:23:15;13.10;82.60
32506;DHT22;18955;51.224;8.482;2022-10-16T13:28:32;13.10;82.40
32506;DHT22;18955;51.224;8.482;2022-10-16T13:31:00;13.10;82.40
32506;DHT22;18955;51.224;8.482;2022-10-16T13:33:32;13.10;82.30
32506;DHT22;18955;51.224;8.482;2022-10-16T13:35:59;13.10;82.50
32506;DHT22;18955;51.224;8.482;2022-10-16T13:38:31;13.10;82.50
32506;DHT22;18955;51.224;8.482;2022-10-16T13:41:03;13.20;82.60
32506;DHT22;18955;51.224;8.482;2022-10-16T13:46:03;13.20;82.30
32506;DHT22;18955;51.224;8.482;2022-10-16T13:48:31;13.20;82.70
32506;DHT22;18955;51.224;8.482;2022-10-16T13:50:59;13.20;83.00
32506;DHT22;18955;51.224;8.482;2022-10-16T13:53:26;13.20;82.70
32506;DHT22;18955;51.224;8.482;2022-10-16T13:55:52;13.30;82.90
32506;DHT22;18955;51.224;8.482;2022-10-16T13:58:19;13.30;82.70
32506;DHT22;18955;51.224;8.482;2022-10-16T14:01:06;13.30;82.70
32506;DHT22;18955;51.224;8.482;2022-10-16T14:03:41;13.30;82.80
32506;DHT22;18955;51.224;8.482;2022-10-16T14:06:13;13.30;82.70
32506;DHT22;18955;51.224;8.482;2022-10-16T14:09:08;13.30;82.80
32506;DHT22;18955;51.224;8.482;2022-10-16T14:11:46;13.30;82.80
32506;DHT22;18955;51.224;8.482;2022-10-16T14:14:14;13.30;82.90
32506;DHT22;18955;51.224;8.482;2022-10-16T14:16:42;13.40;82.90
32506;DHT22;18955;51.224;8.482;2022-10-16T14:19:20;13.40;83.00
32506;DHT22;18955;51.224;8.482;2022-10-16T14:21:52;13.40;83.00
32506;DHT22;18955;51.224;8.482;2022-10-16T14:24:31;13.40;82.90
32506;DHT22;18955;51.224;8.482;2022-10-16T14:26:59;13.40;82.90
32506;DHT22;18955;51.224;8.482;2022-10-16T14:29:26;13.40;82.90
32506;DHT22;18955;51.224;8.482;2022-10-16T14:31:57;13.40;83.10
32506;DHT22;18955;51.224;8.482;2022-10-16T14:37:01;13.40;83.00
32506;DHT22;18955;51.224;8.482;2022-10-16T14:39:33;13.40;83.00
32506;DHT22;18955;51.224;8.482;2022-10-16T14:42:00;13.50;83.00
32506;DHT22;18955;51.224;8.482;2022-10-16T14:44:30;13.50;83.00
32506;DHT22;18955;51.224;8.482;2022-10-16T14:46:57;13.50;82.90
32506;DHT22;18955;51.224;8.482;2022-10-16T14:49:23;13.50;82.90
32506;DHT22;18955;51.224;8.482;2022-10-16T14:51:50;13.50;83.00
32506;DHT22;18955;51.224;8.482;2022-10-16T14:54:18;13.50;82.90
32506;DHT22;18955;51.224;8.482;2022-10-16T14:56:54;13.50;82.90
32506;DHT22;18955;51.224;8.482;2022-10-16T14:59:34;13.50;82.90
32506;DHT22;18955;51.224;8.482;2022-10-16T15:04:41;13.60;82.90
32506;DHT22;18955;51.224;8.482;2022-10-16T15:07:07;13.60;82.90
32506;DHT22;18955;51.224;8.482;2022-10-16T15:09:34;13.60;82.80
32506;DHT22;18955;51.224;8.482;2022-10-16T15:12:00;13.60;82.80
32506;DHT22;18955;51.224;8.482;2022-10-16T15:14:26;13.60;82.90
32506;DHT22;18955;51.224;8.482;2022-10-16T15:16:52;13.60;82.90
32506;DHT22;18955;51.224;8.482;2022-10-16T15:19:19;13.60;82.90
32506;DHT22;18955;51.224;8.482;2022-10-16T15:21:45;13.60;82.90
32506;DHT22;18955;51.224;8.482;2022-10-16T15:24:12;13.60;82.80
32506;DHT22;18955;51.224;8.482;2022-10-16T15:26:39;13.60;82.70
32506;DHT22;18955;51.224;8.482;2022-10-16T15:29:06;13.60;82.80
32506;DHT22;18955;51.224;8.482;2022-10-16T15:31:32;13.60;82.70
32506;DHT22;18955;51.224;8.482;2022-10-16T15:33:59;13.60;82.70
32506;DHT22;18955;51.224;8.482;2022-10-16T15:36:32;13.60;82.70
32506;DHT22;18955;51.224;8.482;2022-10-16T15:39:03;13.60;82.80
32506;DHT22;18955;51.224;8.482;2022-10-16T15:41:30;13.60;82.70
32506;DHT22;18955;51.224;8.482;2022-10-16T15:43:56;13.60;82.80
32506;DHT22;18955;51.224;8.482;2022-10-16T15:46:24;13.60;82.80
32506;DHT22;18955;51.224;8.482;2022-10-16T15:48:51;13.70;82.80
32506;DHT22;18955;51.224;8.482;2022-10-16T15:51:21;13.70;82.70
32506;DHT22;18955;51.224;8.482;2022-10-16T15:53:48;13.70;82.70
32506;DHT22;18955;51.224;8.482;2022-10-16T15:56:14;13.70;82.80
32506;DHT22;18955;51.224;8.482;2022-10-16T15:58:43;13.70;82.80
32506;DHT22;18955;51.224;8.482;2022-10-16T16:01:09;13.70;82.80
32506;DHT22;18955;51.224;8.482;2022-10-16T16:03:38;13.70;82.80
32506;DHT22;18955;51.224;8.482;2022-10-16T16:06:08;13.70;82.80
32506;DHT22;18955;51.224;8.482;2022-10-16T16:08:35;13.70;82.80
32506;DHT22;18955;51.224;8.482;2022-10-16T16:11:05;13.70;82.80
32506;DHT22;18955;51.224;8.482;2022-10-16T16:13:32;13.70;82.80
32506;DHT22;18955;51.224;8.482;2022-10-16T16:15:58;13.70;82.80
32506;DHT22;18955;51.224;8.482;2022-10-16T16:18:25;13.70;82.80
32506;DHT22;18955;51.224;8.482;2022-10-16T16:20:52;13.70;82.80
32506;DHT22;18955;51.224;8.482;2022-10-16T16:23:18;13.70;82.80
32506;DHT22;18955;51.224;8.482;2022-10-16T16:25:53;13.70;82.80
32506;DHT22;18955;51.224;8.482;2022-10-16T16:28:27;13.70;82.80
32506;DHT22;18955;51.224;8.482;2022-10-16T16:30:53;13.70;82.90
32506;DHT22;18955;51.224;8.482;2022-10-16T16:33:20;13.70;82.80
32506;DHT22;18955;51.224;8.482;2022-10-16T16:35:46;13.70;82.80
32506;DHT22;18955;51.224;8.482;2022-10-16T16:38:12;13.70;82.80
32506;DHT22;18955;51.224;8.482;2022-10-16T16:40:38;13.70;82.80
32506;DHT22;18955;51.224;8.482;2022-10-16T16:43:04;13.70;82.80
32506;DHT22;18955;51.224;8.482;2022-10-16T16:45:35;13.70;82.80
32506;DHT22;18955;51.224;8.482;2022-10-16T16:48:01;13.70;82.80
32506;DHT22;18955;51.224;8.482;2022-10-16T16:50:28;13.70;82.80
32506;DHT22;18955;51.224;8.482;2022-10-16T16:52:54;13.70;82.90
32506;DHT22;18955;51.224;8.482;2022-10-16T16:55:20;13.70;82.80
32506;DHT22;18955;51.224;8.482;2022-10-16T16:57:48;13.70;82.80
32506;DHT22;18955;51.224;8.482;2022-10-16T17:00:14;13.70;82.80
32506;DHT22;18955;51.224;8.482;2022-10-16T17:02:40;13.70;82.80
32506;DHT22;18955;51.224;8.482;2022-10-16T17:05:09;13.70;82.80
32506;DHT22;18955;51.224;8.482;2022-10-16T17:07:35;13.70;82.80
32506;DHT22;18955;51.224;8.482;2022-10-16T17:10:02;13.70;82.80
32506;DHT22;18955;51.224;8.482;2022-10-16T17:12:29;13.70;82.80
32506;DHT22;18955;51.224;8.482;2022-10-16T17:14:56;13.60;82.80
32506;DHT22;18955;51.224;8.482;2022-10-16T17:17:22;13.70;82.80
32506;DHT22;18955;51.224;8.482;2022-10-16T17:19:50;13.60;82.80
32506;DHT22;18955;51.224;8.482;2022-10-16T17:22:17;13.70;82.80